createdAt,value
2018-02-13T00:00:27.906Z,97888.30
2018-02-13T00:02:55.452Z,97895.59
2018-02-13T00:05:23.008Z,97894.12
2018-02-13T00:07:50.591Z,97890.17
2018-02-13T00:10:18.170Z,97889.16
2018-02-13T00:12:45.692Z,97886.67
2018-02-13T00:15:13.189Z,97887.48
2018-02-13T00:17:40.719Z,97877.73
2018-02-13T00:20:08.194Z,97881.20
2018-02-13T00:22:47.515Z,97879.98
2018-02-13T00:25:15.013Z,97878.94
2018-02-13T00:27:42.511Z,97879.34
2018-02-13T00:30:10.892Z,97875.30
2018-02-13T00:32:38.445Z,97881.83
2018-02-13T00:35:05.967Z,97880.27
2018-02-13T00:37:33.887Z,97879.34
2018-02-13T00:40:01.381Z,97883.39
2018-02-13T00:42:28.893Z,97878.55
2018-02-13T00:44:56.411Z,97876.30
2018-02-13T00:47:23.890Z,97880.30
2018-02-13T00:49:51.433Z,97887.20
2018-02-13T00:52:18.901Z,97887.55
2018-02-13T00:54:46.414Z,97883.50
2018-02-13T00:57:13.912Z,97885.58
2018-02-13T00:59:41.418Z,97878.54
2018-02-13T01:02:08.911Z,97878.48
2018-02-13T01:04:36.380Z,97877.04
2018-02-13T01:07:03.945Z,97882.17
2018-02-13T01:09:31.470Z,97885.80
2018-02-13T01:11:58.983Z,97880.84
2018-02-13T01:14:26.460Z,97881.59
2018-02-13T01:16:53.966Z,97880.22
2018-02-13T01:19:21.498Z,97878.84
2018-02-13T01:21:48.999Z,97878.86
2018-02-13T01:24:16.513Z,97877.19
2018-02-13T01:26:43.994Z,97879.33
2018-02-13T01:29:11.507Z,97880.97
2018-02-13T01:31:38.988Z,97875.78
2018-02-13T01:34:07.385Z,97878.75
2018-02-13T01:36:34.861Z,97877.37
2018-02-13T01:39:02.443Z,97873.50
2018-02-13T01:41:29.936Z,97876.97
2018-02-13T01:43:57.448Z,97870.27
2018-02-13T01:46:24.921Z,97871.89
2018-02-13T01:48:52.515Z,97871.55
2018-02-13T01:51:20.358Z,97870.16
2018-02-13T01:53:47.992Z,97871.48
2018-02-13T01:56:15.533Z,97867.30
2018-02-13T01:58:43.004Z,97867.73
2018-02-13T02:01:10.621Z,97866.52
2018-02-13T02:03:38.323Z,97869.08
2018-02-13T02:06:05.860Z,97870.36
2018-02-13T02:08:33.417Z,97867.76
2018-02-13T02:11:00.939Z,97864.36
2018-02-13T02:13:28.515Z,97866.25
2018-02-13T02:15:55.952Z,97863.20
2018-02-13T02:18:23.507Z,97864.11
2018-02-13T02:20:51.006Z,97859.86
2018-02-13T02:23:18.513Z,97864.72
2018-02-13T02:25:46.012Z,97861.17
2018-02-13T02:28:13.523Z,97861.06
2018-02-13T02:30:41.011Z,97861.64
2018-02-13T02:33:08.513Z,97857.95
2018-02-13T02:35:36.053Z,97849.42
2018-02-13T02:38:03.536Z,97849.42
2018-02-13T02:40:31.076Z,97850.98
2018-02-13T02:43:06.654Z,97850.58
2018-02-13T02:45:34.170Z,97844.17
2018-02-13T02:48:01.664Z,97847.11
2018-02-13T02:50:29.776Z,97843.48
2018-02-13T02:52:57.298Z,97843.42
2018-02-13T02:55:24.800Z,97841.29
2018-02-13T02:57:52.348Z,97842.67
2018-02-13T03:00:19.828Z,97836.56
2018-02-13T03:02:47.419Z,97836.91
2018-02-13T03:05:14.984Z,97831.48
2018-02-13T03:07:42.556Z,97831.38
2018-02-13T03:10:10.169Z,97830.98
2018-02-13T03:12:37.747Z,97831.27
2018-02-13T03:15:05.264Z,97826.19
2018-02-13T03:17:32.845Z,97806.09
2018-02-13T03:20:00.310Z,97820.03
2018-02-13T03:22:27.819Z,97829.05
2018-02-13T03:24:55.321Z,97823.41
2018-02-13T03:27:22.855Z,97824.50
2018-02-13T03:29:50.349Z,97817.77
2018-02-13T03:32:17.850Z,97818.05
2018-02-13T03:34:45.359Z,97814.77
2018-02-13T03:37:12.951Z,97813.28
2018-02-13T03:39:40.403Z,97809.98
2018-02-13T03:42:07.951Z,97815.41
2018-02-13T03:44:35.439Z,97816.52
2018-02-13T03:47:02.949Z,97813.05
2018-02-13T03:49:30.456Z,97811.02
2018-02-13T03:51:57.989Z,97807.16
2018-02-13T03:54:25.551Z,97807.81
2018-02-13T03:56:53.030Z,97810.04
2018-02-13T03:59:20.543Z,97810.66
2018-02-13T04:01:48.035Z,97808.30
2018-02-13T04:04:16.037Z,97804.45
2018-02-13T04:06:43.522Z,97803.57
2018-02-13T04:09:11.002Z,97795.79
2018-02-13T04:11:41.793Z,97799.31
2018-02-13T04:14:09.266Z,97798.30
2018-02-13T04:16:36.767Z,97793.66
2018-02-13T04:19:04.244Z,97790.66
2018-02-13T04:21:32.217Z,97796.61
2018-02-13T04:23:59.766Z,97794.83
2018-02-13T04:26:27.364Z,97796.19
2018-02-13T04:28:55.007Z,97794.75
2018-02-13T04:31:22.584Z,97783.60
2018-02-13T04:33:50.199Z,97785.16
2018-02-13T04:36:17.720Z,97784.12
2018-02-13T04:38:45.224Z,97785.42
2018-02-13T04:41:12.702Z,97789.49
2018-02-13T04:43:40.230Z,97782.55
2018-02-13T04:46:07.725Z,97780.52
2018-02-13T04:48:35.231Z,97778.55
2018-02-13T04:51:02.711Z,97783.37
2018-02-13T04:53:30.204Z,97776.30
2018-02-13T04:55:57.718Z,97773.03
2018-02-13T04:58:25.214Z,97775.39
2018-02-13T05:00:52.715Z,97769.95
2018-02-13T05:03:20.269Z,97770.77
2018-02-13T05:05:47.774Z,97773.68
2018-02-13T05:08:15.279Z,97771.00
2018-02-13T05:10:42.822Z,97768.69
2018-02-13T05:13:10.337Z,97777.48
2018-02-13T05:15:37.856Z,97776.17
2018-02-13T05:18:05.383Z,97776.73
2018-02-13T05:20:33.109Z,97779.77
2018-02-13T05:23:00.625Z,97780.65
2018-02-13T05:25:28.734Z,97775.87
2018-02-13T05:27:56.252Z,97780.10
2018-02-13T05:30:23.765Z,97776.72
2018-02-13T05:32:51.230Z,97785.50
2018-02-13T05:35:18.735Z,97783.33
2018-02-13T05:37:46.988Z,97773.08
2018-02-13T05:40:14.501Z,97777.23
2018-02-13T05:42:42.056Z,97773.92
2018-02-13T05:45:09.530Z,97771.39
2018-02-13T05:47:37.111Z,97773.11
2018-02-13T05:50:04.597Z,97764.36
2018-02-13T05:52:32.525Z,97763.22
2018-02-13T05:55:00.008Z,97761.50
2018-02-13T05:57:27.518Z,97764.06
2018-02-13T05:59:55.003Z,97763.62
2018-02-13T06:02:22.523Z,97765.29
2018-02-13T06:04:50.069Z,97763.45
2018-02-13T06:07:17.626Z,97758.48
2018-02-13T06:09:45.151Z,97763.16
2018-02-13T06:12:12.631Z,97768.63
2018-02-13T06:14:40.150Z,97764.58
2018-02-13T06:17:07.690Z,97765.75
2018-02-13T06:19:35.204Z,97762.52
2018-02-13T06:22:02.672Z,97768.49
2018-02-13T06:24:30.149Z,97771.12
2018-02-13T06:26:57.643Z,97759.26
2018-02-13T06:29:25.152Z,97759.03
2018-02-13T06:31:52.697Z,97764.77
2018-02-13T06:34:20.186Z,97769.43
2018-02-13T06:36:47.695Z,97768.99
2018-02-13T06:39:15.197Z,97763.62
2018-02-13T06:41:42.657Z,97769.10
2018-02-13T06:44:10.171Z,97768.40
2018-02-13T06:46:37.720Z,97763.11
2018-02-13T06:49:05.253Z,97762.23
2018-02-13T06:51:33.346Z,97760.94
2018-02-13T06:54:00.878Z,97770.58
2018-02-13T06:56:28.364Z,97766.61
2018-02-13T06:58:55.949Z,97768.02
2018-02-13T07:01:23.571Z,97764.31
2018-02-13T07:03:51.188Z,97765.92
2018-02-13T07:06:18.788Z,97767.53
2018-02-13T07:08:46.294Z,97769.22
2018-02-13T07:11:13.800Z,97765.92
2018-02-13T07:13:41.304Z,97771.52
2018-02-13T07:16:08.893Z,97765.06
2018-02-13T07:18:36.438Z,97765.80
2018-02-13T07:21:03.960Z,97769.03
2018-02-13T07:23:31.432Z,97764.59
2018-02-13T07:25:58.961Z,97762.48
2018-02-13T07:28:27.302Z,97760.77
2018-02-13T07:30:54.790Z,97753.73
2018-02-13T07:33:22.397Z,97751.86
2018-02-13T07:35:49.926Z,97752.64
2018-02-13T07:38:17.489Z,97745.54
2018-02-13T07:40:45.062Z,97744.48
2018-02-13T07:43:12.698Z,97739.02
2018-02-13T07:45:40.226Z,97740.83
2018-02-13T07:48:07.724Z,97733.16
2018-02-13T07:50:35.299Z,97738.94
2018-02-13T07:53:02.787Z,97737.44
2018-02-13T07:55:30.312Z,97735.73
2018-02-13T07:57:57.840Z,97733.73
2018-02-13T08:00:25.362Z,97728.02
2018-02-13T08:02:52.846Z,97733.14
2018-02-13T08:05:20.456Z,97729.71
2018-02-13T08:07:47.937Z,97730.27
2018-02-13T08:10:15.430Z,97724.42
2018-02-13T08:12:42.939Z,97718.70
2018-02-13T08:15:10.456Z,97716.81
2018-02-13T08:17:37.961Z,97711.99
2018-02-13T08:20:05.438Z,97712.86
2018-02-13T08:22:32.964Z,97708.80
2018-02-13T08:25:00.577Z,97711.28
2018-02-13T08:27:28.224Z,97704.02
2018-02-13T08:29:55.809Z,97699.53
2018-02-13T08:32:23.508Z,97698.62
2018-02-13T08:34:51.017Z,97693.58
2018-02-13T08:37:18.660Z,97680.27
2018-02-13T08:39:46.274Z,97675.80
2018-02-13T08:42:13.766Z,97678.54
2018-02-13T08:44:41.335Z,97674.07
2018-02-13T08:47:08.812Z,97675.81
2018-02-13T08:49:36.385Z,97665.28
2018-02-13T08:52:03.894Z,97667.38
2018-02-13T08:54:31.400Z,97661.95
2018-02-13T08:56:58.927Z,97673.59
2018-02-13T08:59:26.428Z,97658.70
2018-02-13T09:01:53.958Z,97669.13
2018-02-13T09:04:21.462Z,97663.66
2018-02-13T09:06:48.960Z,97667.30
2018-02-13T09:09:17.285Z,97657.07
2018-02-13T09:11:44.906Z,97667.50
2018-02-13T09:14:12.487Z,97667.67
2018-02-13T09:16:40.025Z,97663.10
2018-02-13T09:19:07.774Z,97660.55
2018-02-13T09:21:35.280Z,97661.80
2018-02-13T09:24:02.874Z,97667.44
2018-02-13T09:26:30.390Z,97663.89
2018-02-13T09:28:57.910Z,97659.55
2018-02-13T09:31:25.459Z,97653.10
2018-02-13T09:33:52.957Z,97657.95
2018-02-13T09:36:20.498Z,97645.91
2018-02-13T09:38:47.970Z,97644.00
2018-02-13T09:41:15.511Z,97636.64
2018-02-13T09:43:43.017Z,97633.86
2018-02-13T09:46:10.530Z,97632.43
2018-02-13T09:48:38.063Z,97638.83
2018-02-13T09:51:05.609Z,97629.92
2018-02-13T09:53:33.222Z,97631.47
2018-02-13T09:56:00.716Z,97629.09
2018-02-13T09:58:28.237Z,97624.44
2018-02-13T10:00:55.746Z,97623.36
2018-02-13T10:03:23.909Z,97622.48
2018-02-13T10:05:51.422Z,97615.68
2018-02-13T10:08:18.960Z,97617.52
2018-02-13T10:10:46.474Z,97603.62
2018-02-13T10:13:14.003Z,97611.06
2018-02-13T10:15:41.517Z,97576.28
2018-02-13T10:18:09.046Z,97606.86
2018-02-13T10:20:36.574Z,97600.56
2018-02-13T10:23:04.144Z,97595.28
2018-02-13T10:25:31.806Z,97591.97
2018-02-13T10:27:59.289Z,97582.33
2018-02-13T10:30:26.875Z,97584.32
2018-02-13T10:32:54.357Z,97577.42
2018-02-13T10:35:21.883Z,97573.47
2018-02-13T10:37:49.518Z,97572.75
2018-02-13T10:40:17.173Z,97572.69
2018-02-13T10:42:44.747Z,97564.40
2018-02-13T10:45:12.318Z,97558.37
2018-02-13T10:47:39.832Z,97558.77
2018-02-13T10:50:11.211Z,97552.00
2018-02-13T10:52:38.730Z,97551.38
2018-02-13T10:55:06.846Z,97548.59
2018-02-13T10:57:34.370Z,97543.55
2018-02-13T11:00:01.879Z,97539.06
2018-02-13T11:02:29.401Z,97530.71
2018-02-13T11:04:56.905Z,97533.71
2018-02-13T11:07:24.436Z,97532.23
2018-02-13T11:09:51.947Z,97527.19
2018-02-13T11:12:19.450Z,97516.20
2018-02-13T11:14:46.983Z,97508.07
2018-02-13T11:17:14.501Z,97500.08
2018-02-13T11:19:42.015Z,97500.67
2018-02-13T11:22:09.499Z,97484.98
2018-02-13T11:24:37.008Z,97480.87
2018-02-13T11:27:04.554Z,97475.03
2018-02-13T11:29:32.075Z,97474.72
2018-02-13T11:31:59.781Z,97468.41
2018-02-13T11:34:27.260Z,97456.09
2018-02-13T11:36:54.763Z,97461.52
2018-02-13T11:39:22.241Z,97454.41
2018-02-13T11:41:49.876Z,97450.17
2018-02-13T11:44:17.359Z,97447.25
2018-02-13T11:46:44.944Z,97439.23
2018-02-13T11:49:12.617Z,97430.91
2018-02-13T11:51:40.215Z,97436.60
2018-02-13T11:54:07.723Z,97427.25
2018-02-13T11:56:35.213Z,97426.72
2018-02-13T11:59:02.762Z,97417.55
2018-02-13T12:01:30.294Z,97410.54
2018-02-13T12:03:57.864Z,97408.74
2018-02-13T12:06:25.344Z,97404.38
2018-02-13T12:08:52.863Z,97410.09
2018-02-13T12:11:20.391Z,97404.06
2018-02-13T12:13:47.894Z,97391.05
2018-02-13T12:16:15.775Z,97385.77
2018-02-13T12:18:43.744Z,97391.23
2018-02-13T12:21:11.445Z,97384.88
2018-02-13T12:23:38.924Z,97377.50
2018-02-13T12:26:06.646Z,97373.85
2018-02-13T12:28:34.152Z,97369.44
2018-02-13T12:31:01.692Z,97367.98
2018-02-13T12:33:29.177Z,97355.22
2018-02-13T12:35:56.691Z,97347.39
2018-02-13T12:38:24.171Z,97347.32
2018-02-13T12:40:51.741Z,97340.45
2018-02-13T12:43:19.270Z,97334.56
2018-02-13T12:45:46.760Z,97340.49
2018-02-13T12:48:14.292Z,97330.73
2018-02-13T12:50:41.777Z,97326.27
2018-02-13T12:53:09.273Z,97327.94
2018-02-13T12:55:36.764Z,97319.63
2018-02-13T12:58:04.319Z,97316.25
2018-02-13T13:00:31.800Z,97310.87
2018-02-13T13:02:59.324Z,97314.03
2018-02-13T13:05:26.804Z,97303.06
2018-02-13T13:07:54.286Z,97304.77
2018-02-13T13:10:21.828Z,97295.42
2018-02-13T13:12:49.311Z,97298.44
2018-02-13T13:15:16.835Z,97297.25
2018-02-13T13:17:44.363Z,97295.30
2018-02-13T13:20:11.887Z,97293.36
2018-02-13T13:22:39.413Z,97287.23
2018-02-13T13:25:06.889Z,97276.11
2018-02-13T13:27:34.391Z,97273.17
2018-02-13T13:30:01.899Z,97264.80
2018-02-13T13:32:29.465Z,97262.72
2018-02-13T13:34:56.997Z,97256.75
2018-02-13T13:37:24.621Z,97261.91
2018-02-13T13:39:52.207Z,97255.08
2018-02-13T13:42:19.784Z,97244.36
2018-02-13T13:44:47.445Z,97239.52
2018-02-13T13:47:14.960Z,97240.62
2018-02-13T13:49:42.453Z,97232.86
2018-02-13T13:52:09.993Z,97229.19
2018-02-13T13:54:37.545Z,97222.20
2018-02-13T13:57:05.808Z,97217.44
2018-02-13T13:59:33.325Z,97214.25
2018-02-13T14:02:00.831Z,97215.56
2018-02-13T14:04:28.347Z,97221.73
2018-02-13T14:06:56.850Z,97217.14
2018-02-13T14:09:24.349Z,97210.99
2018-02-13T14:11:51.887Z,97211.34
2018-02-13T14:14:19.376Z,97206.33
2018-02-13T14:16:47.172Z,97213.52
2018-02-13T14:19:14.662Z,97204.05
2018-02-13T14:21:42.152Z,97196.63
2018-02-13T14:24:09.665Z,97200.04
2018-02-13T14:26:37.234Z,97200.74
2018-02-13T14:29:04.840Z,97205.25
2018-02-13T14:31:32.504Z,97200.23
2018-02-13T14:34:00.118Z,97202.78
2018-02-13T14:36:27.705Z,97191.98
2018-02-13T14:38:55.329Z,97193.38
2018-02-13T14:41:22.840Z,97180.41
2018-02-13T14:43:50.474Z,97179.88
2018-02-13T14:46:18.041Z,97183.01
2018-02-13T14:48:45.531Z,97185.12
2018-02-13T14:51:13.068Z,97176.13
2018-02-13T14:53:40.565Z,97185.22
2018-02-13T14:56:08.140Z,97184.36
2018-02-13T14:58:35.618Z,97191.34
2018-02-13T15:01:03.223Z,97191.22
2018-02-13T15:03:30.744Z,97192.11
2018-02-13T15:05:58.225Z,97188.69
2018-02-13T15:08:25.735Z,97191.07
2018-02-13T15:10:53.213Z,97192.73
2018-02-13T15:13:20.720Z,97190.59
2018-02-13T15:15:50.613Z,97183.64
2018-02-13T15:18:18.128Z,97180.59
2018-02-13T15:20:45.671Z,97178.09
2018-02-13T15:23:13.203Z,97180.36
2018-02-13T15:25:40.702Z,97172.70
2018-02-13T15:28:08.222Z,97168.77
2018-02-13T15:30:35.761Z,97171.31
2018-02-13T15:33:03.335Z,97177.58
2018-02-13T15:35:30.899Z,97175.22
2018-02-13T15:37:58.528Z,97174.56
2018-02-13T15:40:26.162Z,97170.60
2018-02-13T15:42:53.667Z,97178.77
2018-02-13T15:45:21.188Z,97177.43
2018-02-13T15:47:48.710Z,97175.59
2018-02-13T15:50:16.187Z,97179.19
2018-02-13T15:52:43.697Z,97174.52
2018-02-13T15:55:11.169Z,97175.98
2018-02-13T15:57:38.684Z,97173.59
2018-02-13T16:00:06.175Z,97172.50
2018-02-13T16:02:33.730Z,97169.03
2018-02-13T16:05:01.241Z,97170.25
2018-02-13T16:07:28.738Z,97172.27
2018-02-13T16:09:56.292Z,97172.25
2018-02-13T16:12:23.804Z,97180.22
2018-02-13T16:14:51.302Z,97173.67
2018-02-13T16:17:18.818Z,97179.80
2018-02-13T16:19:46.340Z,97178.60
2018-02-13T16:22:13.877Z,97179.09
2018-02-13T16:24:41.393Z,97178.41
2018-02-13T16:27:08.944Z,97176.67
2018-02-13T16:29:36.895Z,97182.52
2018-02-13T16:32:04.468Z,97185.19
2018-02-13T16:34:32.064Z,97184.23
2018-02-13T16:36:59.603Z,97181.55
2018-02-13T16:39:27.168Z,97187.34
2018-02-13T16:41:54.687Z,97178.12
2018-02-13T16:44:23.034Z,97182.09
2018-02-13T16:46:50.567Z,97176.63
2018-02-13T16:49:18.129Z,97176.91
2018-02-13T16:51:46.339Z,97170.59
2018-02-13T16:54:13.859Z,97172.08
2018-02-13T16:56:41.613Z,97169.33
2018-02-13T16:59:09.202Z,97179.06
2018-02-13T17:01:36.743Z,97176.59
2018-02-13T17:04:04.433Z,97176.05
2018-02-13T17:06:31.966Z,97182.18
2018-02-13T17:08:59.515Z,97184.19
2018-02-13T17:11:27.170Z,97183.38
2018-02-13T17:13:54.765Z,97186.46
2018-02-13T17:16:22.941Z,97189.90
2018-02-13T17:18:50.454Z,97190.70
2018-02-13T17:21:17.977Z,97186.69
2018-02-13T17:23:45.545Z,97182.97
2018-02-13T17:26:13.195Z,97188.10
2018-02-13T17:28:40.755Z,97190.13
2018-02-13T17:31:08.238Z,97189.22
2018-02-13T17:33:35.742Z,97186.02
2018-02-13T17:36:03.271Z,97174.75
2018-02-13T17:38:30.786Z,97189.11
2018-02-13T17:40:58.499Z,97187.25
2018-02-13T17:52:40.751Z,97196.75
2018-02-13T17:55:08.261Z,97197.68
2018-02-13T17:57:35.770Z,97196.45
2018-02-13T18:00:03.335Z,97200.56
2018-02-13T18:02:30.820Z,97213.06
2018-02-13T18:04:58.593Z,97204.84
2018-02-13T18:07:26.149Z,97209.69
2018-02-13T18:09:53.703Z,97217.30
2018-02-13T18:12:21.213Z,97215.97
2018-02-13T18:14:48.729Z,97218.09
2018-02-13T18:17:16.250Z,97213.39
2018-02-13T18:19:43.747Z,97220.28
2018-02-13T18:22:11.271Z,97219.73
2018-02-13T18:24:38.849Z,97218.81
2018-02-13T18:27:06.377Z,97215.70
2018-02-13T18:29:33.892Z,97211.17
2018-02-13T18:32:01.554Z,97210.43
2018-02-13T18:34:29.064Z,97219.05
2018-02-13T18:36:57.038Z,97221.08
2018-02-13T18:39:24.600Z,97228.61
2018-02-13T18:41:52.185Z,97223.98
2018-02-13T18:44:19.732Z,97224.23
2018-02-13T18:46:47.242Z,97227.16
2018-02-13T18:49:14.767Z,97221.45
2018-02-13T18:51:42.243Z,97225.06
2018-02-13T18:54:10.605Z,97226.77
2018-02-13T18:56:38.706Z,97224.23
2018-02-13T18:59:06.254Z,97221.05
2018-02-13T19:01:33.755Z,97227.41
2018-02-13T19:04:01.754Z,97223.45
2018-02-13T19:06:30.074Z,97219.08
2018-02-13T19:08:57.589Z,97223.33
2018-02-13T19:11:25.100Z,97214.22
2018-02-13T19:13:52.731Z,97223.55
2018-02-13T19:16:20.274Z,97219.97
2018-02-13T19:18:47.783Z,97217.46
2018-02-13T19:21:15.358Z,97219.63
2018-02-13T19:23:42.880Z,97220.00
2018-02-13T19:26:10.415Z,97221.73
2018-02-13T19:28:37.952Z,97219.91
2018-02-13T19:31:05.470Z,97217.59
2018-02-13T19:33:32.996Z,97216.02
2018-02-13T19:36:00.510Z,97215.73
2018-02-13T19:38:28.054Z,97218.30
2018-02-13T19:40:55.775Z,97214.05
2018-02-13T19:43:23.502Z,97210.09
2018-02-13T19:45:51.998Z,97210.38
2018-02-13T19:48:19.545Z,97204.30
2018-02-13T19:50:47.096Z,97204.70
2018-02-13T19:53:15.388Z,97209.57
2018-02-13T19:55:43.293Z,97205.68
2018-02-13T19:58:10.794Z,97208.39
2018-02-13T20:00:38.397Z,97206.95
2018-02-13T20:03:06.022Z,97208.55
2018-02-13T20:05:33.593Z,97213.48
2018-02-13T20:08:01.192Z,97211.80
2018-02-13T20:10:28.865Z,97201.14
2018-02-13T20:12:56.438Z,97209.02
2018-02-13T20:15:24.049Z,97210.21
2018-02-13T20:17:51.617Z,97208.48
2018-02-13T20:20:19.132Z,97212.34
2018-02-13T20:22:46.715Z,97214.80
2018-02-13T20:25:14.218Z,97215.36
2018-02-13T20:27:41.735Z,97217.83
2018-02-13T20:30:09.269Z,97219.31
2018-02-13T20:32:36.815Z,97216.50
2018-02-13T20:35:04.396Z,97207.58
2018-02-13T20:37:31.915Z,97213.13
2018-02-13T20:39:59.437Z,97208.72
2018-02-13T20:42:26.948Z,97204.06
2018-02-13T20:44:54.457Z,97207.91
2018-02-13T20:47:21.950Z,97202.97
2018-02-13T20:49:49.530Z,97203.70
2018-02-13T20:52:17.159Z,97207.89
2018-02-13T20:54:44.678Z,97204.84
2018-02-13T20:57:12.195Z,97204.44
2018-02-13T20:59:39.695Z,97209.83
2018-02-13T21:02:07.253Z,97202.95
2018-02-13T21:04:34.768Z,97204.77
2018-02-13T21:07:02.312Z,97202.45
2018-02-13T21:09:29.973Z,97205.94
2018-02-13T21:11:57.466Z,97208.11
2018-02-13T21:14:25.047Z,97214.22
2018-02-13T21:16:52.543Z,97213.73
2018-02-13T21:19:20.055Z,97207.55
2018-02-13T21:21:47.535Z,97212.77
2018-02-13T21:24:15.060Z,97206.27
2018-02-13T21:26:42.580Z,97207.88
2018-02-13T21:29:10.094Z,97218.44
2018-02-13T21:31:37.594Z,97216.15
2018-02-13T21:34:05.128Z,97217.67
2018-02-13T21:36:32.695Z,97212.37
2018-02-13T21:39:00.332Z,97209.48
2018-02-13T21:41:27.926Z,97207.03
2018-02-13T21:43:55.531Z,97216.50
2018-02-13T21:46:23.152Z,97211.16
2018-02-13T21:48:50.700Z,97205.38
2018-02-13T21:51:18.279Z,97204.46
2018-02-13T21:53:45.777Z,97204.42
2018-02-13T21:56:13.344Z,97205.50
2018-02-13T21:58:40.836Z,97210.00
2018-02-13T22:01:09.049Z,97211.44
2018-02-13T22:03:36.558Z,97213.66
2018-02-13T22:06:04.086Z,97215.25
2018-02-13T22:08:31.655Z,97211.91
2018-02-13T22:10:59.169Z,97206.89
2018-02-13T22:13:26.718Z,97214.48
2018-02-13T22:15:54.238Z,97213.00
2018-02-13T22:18:21.796Z,97216.69
2018-02-13T22:20:49.337Z,97217.69
2018-02-13T22:23:16.959Z,97212.15
2018-02-13T22:25:44.568Z,97218.16
2018-02-13T22:28:12.113Z,97216.09
2018-02-13T22:30:39.732Z,97216.73
2018-02-13T22:33:07.287Z,97219.88
2018-02-13T22:35:34.832Z,97232.22
2018-02-13T22:38:02.333Z,97234.98
2018-02-13T22:40:29.899Z,97244.36
2018-02-13T22:42:58.179Z,97242.23
2018-02-13T22:45:25.707Z,97246.44
2018-02-13T22:47:53.222Z,97249.55
2018-02-13T22:50:20.740Z,97256.25
2018-02-13T22:52:48.244Z,97256.25
2018-02-13T22:55:15.787Z,97254.36
2018-02-13T22:57:43.314Z,97253.16
2018-02-13T23:00:10.826Z,97259.66
2018-02-13T23:02:38.428Z,97254.05
2018-02-13T23:05:06.019Z,97251.01
2018-02-13T23:07:33.535Z,97253.66
2018-02-13T23:10:01.029Z,97256.09
2018-02-13T23:12:28.545Z,97253.67
2018-02-13T23:14:56.107Z,97258.80
2018-02-13T23:17:23.603Z,97257.91
2018-02-13T23:19:51.112Z,97258.14
2018-02-13T23:22:18.606Z,97262.11
2018-02-13T23:24:46.109Z,97263.48
2018-02-13T23:27:13.604Z,97262.28
2018-02-13T23:29:41.104Z,97261.98
2018-02-13T23:32:08.586Z,97261.59
2018-02-13T23:34:36.115Z,97262.30
2018-02-13T23:37:03.593Z,97268.10
2018-02-13T23:39:31.087Z,97264.48
2018-02-13T23:41:59.255Z,97265.69
2018-02-13T23:44:26.758Z,97263.78
2018-02-13T23:46:54.268Z,97265.05
2018-02-13T23:49:21.747Z,97270.69
2018-02-13T23:51:49.260Z,97268.84
2018-02-13T23:54:16.756Z,97274.66
2018-02-13T23:56:44.299Z,97275.88
2018-02-13T23:59:11.773Z,97280.31
